sensor_id;sensor_type;location;lat;lon;timestamp;temperature;humidity
52575;DHT22;38468;48.114;-1.684;2022-07-29T00:00:52;21.50;62.90
52575;DHT22;38468;48.114;-1.684;2022-07-29T00:02:53;21.50;62.80
52575;DHT22;38468;48.114;-1.684;2022-07-29T00:04:54;21.50;62.50
52575;DHT22;38468;48.114;-1.684;2022-07-29T00:06:55;21.60;62.60
52575;DHT22;38468;48.114;-1.684;2022-07-29T00:08:56;21.50;63.00
52575;DHT22;38468;48.114;-1.684;2022-07-29T00:10:57;21.50;63.30
52575;DHT22;38468;48.114;-1.684;2022-07-29T00:12:58;21.40;63.40
52575;DHT22;38468;48.114;-1.684;2022-07-29T00:14:59;21.40;63.50
52575;DHT22;38468;48.114;-1.684;2022-07-29T00:17:00;21.30;63.60
52575;DHT22;38468;48.114;-1.684;2022-07-29T00:19:01;21.30;63.80
52575;DHT22;38468;48.114;-1.684;2022-07-29T00:21:02;21.30;63.90
52575;DHT22;38468;48.114;-1.684;2022-07-29T00:23:02;21.40;63.80
52575;DHT22;38468;48.114;-1.684;2022-07-29T00:25:03;21.40;63.60
52575;DHT22;38468;48.114;-1.684;2022-07-29T00:27:10;21.30;63.60
52575;DHT22;38468;48.114;-1.684;2022-07-29T00:29:11;21.30;63.70
52575;DHT22;38468;48.114;-1.684;2022-07-29T00:31:12;21.20;63.90
52575;DHT22;38468;48.114;-1.684;2022-07-29T00:33:13;21.20;63.80
52575;DHT22;38468;48.114;-1.684;2022-07-29T00:35:14;21.40;63.60
52575;DHT22;38468;48.114;-1.684;2022-07-29T00:37:33;21.30;63.70
52575;DHT22;38468;48.114;-1.684;2022-07-29T00:39:34;21.30;63.90
52575;DHT22;38468;48.114;-1.684;2022-07-29T00:41:35;21.40;63.60
52575;DHT22;38468;48.114;-1.684;2022-07-29T00:43:36;21.40;63.50
52575;DHT22;38468;48.114;-1.684;2022-07-29T00:45:37;21.30;63.50
52575;DHT22;38468;48.114;-1.684;2022-07-29T00:47:38;21.20;63.90
52575;DHT22;38468;48.114;-1.684;2022-07-29T00:49:40;21.20;64.00
52575;DHT22;38468;48.114;-1.684;2022-07-29T00:51:41;21.10;64.20
52575;DHT22;38468;48.114;-1.684;2022-07-29T00:53:42;21.10;64.20
52575;DHT22;38468;48.114;-1.684;2022-07-29T00:55:42;21.20;64.20
52575;DHT22;38468;48.114;-1.684;2022-07-29T00:57:44;21.20;64.00
52575;DHT22;38468;48.114;-1.684;2022-07-29T00:59:45;21.20;63.90
52575;DHT22;38468;48.114;-1.684;2022-07-29T01:01:46;21.20;64.00
52575;DHT22;38468;48.114;-1.684;2022-07-29T01:03:46;21.20;63.80
52575;DHT22;38468;48.114;-1.684;2022-07-29T01:05:47;21.20;64.00
52575;DHT22;38468;48.114;-1.684;2022-07-29T01:07:50;21.20;64.00
52575;DHT22;38468;48.114;-1.684;2022-07-29T01:09:52;21.20;64.10
52575;DHT22;38468;48.114;-1.684;2022-07-29T01:11:53;21.10;64.10
52575;DHT22;38468;48.114;-1.684;2022-07-29T01:13:55;21.20;63.90
52575;DHT22;38468;48.114;-1.684;2022-07-29T01:16:25;21.20;63.90
52575;DHT22;38468;48.114;-1.684;2022-07-29T01:18:34;21.10;64.00
52575;DHT22;38468;48.114;-1.684;2022-07-29T01:25:55;21.10;64.00
52575;DHT22;38468;48.114;-1.684;2022-07-29T01:28:17;21.10;63.80
52575;DHT22;38468;48.114;-1.684;2022-07-29T01:30:22;21.10;63.80
52575;DHT22;38468;48.114;-1.684;2022-07-29T01:32:28;21.10;63.70
52575;DHT22;38468;48.114;-1.684;2022-07-29T01:34:58;21.20;63.20
52575;DHT22;38468;48.114;-1.684;2022-07-29T01:37:15;21.10;63.40
52575;DHT22;38468;48.114;-1.684;2022-07-29T01:39:27;21.10;63.40
52575;DHT22;38468;48.114;-1.684;2022-07-29T01:41:32;21.10;63.40
52575;DHT22;38468;48.114;-1.684;2022-07-29T01:43:59;21.10;63.40
52575;DHT22;38468;48.114;-1.684;2022-07-29T01:46:05;21.10;63.40
52575;DHT22;38468;48.114;-1.684;2022-07-29T01:50:15;21.10;63.10
52575;DHT22;38468;48.114;-1.684;2022-07-29T01:52:21;21.10;63.20
52575;DHT22;38468;48.114;-1.684;2022-07-29T01:54:37;21.00;63.20
52575;DHT22;38468;48.114;-1.684;2022-07-29T01:56:39;21.00;63.30
52575;DHT22;38468;48.114;-1.684;2022-07-29T01:58:43;21.00;63.10
52575;DHT22;38468;48.114;-1.684;2022-07-29T02:00:45;21.00;63.00
52575;DHT22;38468;48.114;-1.684;2022-07-29T02:02:48;21.00;62.80
52575;DHT22;38468;48.114;-1.684;2022-07-29T02:04:49;21.00;62.70
52575;DHT22;38468;48.114;-1.684;2022-07-29T02:06:53;20.90;62.70
52575;DHT22;38468;48.114;-1.684;2022-07-29T02:08:56;21.00;62.20
52575;DHT22;38468;48.114;-1.684;2022-07-29T02:11:00;21.00;61.90
52575;DHT22;38468;48.114;-1.684;2022-07-29T02:13:03;21.00;61.80
52575;DHT22;38468;48.114;-1.684;2022-07-29T02:15:05;21.00;61.80
52575;DHT22;38468;48.114;-1.684;2022-07-29T02:17:06;21.00;61.60
52575;DHT22;38468;48.114;-1.684;2022-07-29T02:19:08;21.00;61.40
52575;DHT22;38468;48.114;-1.684;2022-07-29T02:21:10;20.90;61.20
52575;DHT22;38468;48.114;-1.684;2022-07-29T02:23:13;20.90;61.30
52575;DHT22;38468;48.114;-1.684;2022-07-29T02:25:15;21.00;60.90
52575;DHT22;38468;48.114;-1.684;2022-07-29T02:27:18;21.00;60.50
52575;DHT22;38468;48.114;-1.684;2022-07-29T02:29:22;21.00;60.30
52575;DHT22;38468;48.114;-1.684;2022-07-29T02:31:26;21.00;60.40
52575;DHT22;38468;48.114;-1.684;2022-07-29T02:33:29;21.00;60.30
52575;DHT22;38468;48.114;-1.684;2022-07-29T02:35:31;21.00;60.00
52575;DHT22;38468;48.114;-1.684;2022-07-29T02:37:32;21.00;59.90
52575;DHT22;38468;48.114;-1.684;2022-07-29T02:39:34;21.00;59.60
52575;DHT22;38468;48.114;-1.684;2022-07-29T02:41:37;20.90;59.80
52575;DHT22;38468;48.114;-1.684;2022-07-29T02:43:40;21.00;59.50
52575;DHT22;38468;48.114;-1.684;2022-07-29T02:45:43;21.00;59.30
52575;DHT22;38468;48.114;-1.684;2022-07-29T02:47:48;21.00;59.50
52575;DHT22;38468;48.114;-1.684;2022-07-29T02:49:57;21.00;59.20
52575;DHT22;38468;48.114;-1.684;2022-07-29T02:52:03;21.00;59.00
52575;DHT22;38468;48.114;-1.684;2022-07-29T02:54:07;21.00;59.00
52575;DHT22;38468;48.114;-1.684;2022-07-29T02:56:13;21.00;59.10
52575;DHT22;38468;48.114;-1.684;2022-07-29T02:58:34;21.10;58.60
52575;DHT22;38468;48.114;-1.684;2022-07-29T03:00:40;21.10;58.60
52575;DHT22;38468;48.114;-1.684;2022-07-29T03:02:44;21.00;58.50
52575;DHT22;38468;48.114;-1.684;2022-07-29T03:04:46;21.00;58.70
52575;DHT22;38468;48.114;-1.684;2022-07-29T03:06:50;20.90;58.80
52575;DHT22;38468;48.114;-1.684;2022-07-29T03:08:52;20.90;58.90
52575;DHT22;38468;48.114;-1.684;2022-07-29T03:10:53;20.90;58.60
52575;DHT22;38468;48.114;-1.684;2022-07-29T03:12:56;20.80;58.80
52575;DHT22;38468;48.114;-1.684;2022-07-29T03:14:57;20.90;58.60
52575;DHT22;38468;48.114;-1.684;2022-07-29T03:16:59;21.00;58.40
52575;DHT22;38468;48.114;-1.684;2022-07-29T03:19:00;21.00;57.80
52575;DHT22;38468;48.114;-1.684;2022-07-29T03:21:03;21.00;57.80
52575;DHT22;38468;48.114;-1.684;2022-07-29T03:23:03;21.00;57.80
52575;DHT22;38468;48.114;-1.684;2022-07-29T03:25:12;21.00;57.80
52575;DHT22;38468;48.114;-1.684;2022-07-29T03:27:13;20.90;57.40
52575;DHT22;38468;48.114;-1.684;2022-07-29T03:29:13;21.00;57.70
52575;DHT22;38468;48.114;-1.684;2022-07-29T03:31:14;20.90;57.70
52575;DHT22;38468;48.114;-1.684;2022-07-29T03:33:15;20.90;57.70
52575;DHT22;38468;48.114;-1.684;2022-07-29T03:35:16;21.00;57.70
52575;DHT22;38468;48.114;-1.684;2022-07-29T03:37:19;21.00;57.60
52575;DHT22;38468;48.114;-1.684;2022-07-29T03:39:23;21.00;57.90
52575;DHT22;38468;48.114;-1.684;2022-07-29T03:41:24;21.00;57.80
52575;DHT22;38468;48.114;-1.684;2022-07-29T03:43:27;21.00;57.80
52575;DHT22;38468;48.114;-1.684;2022-07-29T03:45:31;21.00;57.60
52575;DHT22;38468;48.114;-1.684;2022-07-29T03:47:33;21.00;57.50
52575;DHT22;38468;48.114;-1.684;2022-07-29T03:49:36;21.00;57.40
52575;DHT22;38468;48.114;-1.684;2022-07-29T03:51:38;21.00;57.60
52575;DHT22;38468;48.114;-1.684;2022-07-29T03:53:39;20.90;57.70
52575;DHT22;38468;48.114;-1.684;2022-07-29T03:55:43;20.80;57.90
52575;DHT22;38468;48.114;-1.684;2022-07-29T03:57:45;20.90;57.90
52575;DHT22;38468;48.114;-1.684;2022-07-29T03:59:47;20.90;58.10
52575;DHT22;38468;48.114;-1.684;2022-07-29T04:01:48;20.90;57.90
52575;DHT22;38468;48.114;-1.684;2022-07-29T04:03:50;21.00;57.90
52575;DHT22;38468;48.114;-1.684;2022-07-29T04:05:58;21.00;57.70
52575;DHT22;38468;48.114;-1.684;2022-07-29T04:07:59;21.00;57.70
52575;DHT22;38468;48.114;-1.684;2022-07-29T04:10:00;21.00;57.70
52575;DHT22;38468;48.114;-1.684;2022-07-29T04:12:01;21.00;57.90
52575;DHT22;38468;48.114;-1.684;2022-07-29T04:14:02;20.90;58.10
52575;DHT22;38468;48.114;-1.684;2022-07-29T04:16:02;20.90;58.40
52575;DHT22;38468;48.114;-1.684;2022-07-29T04:18:03;20.90;58.90
52575;DHT22;38468;48.114;-1.684;2022-07-29T04:20:04;20.90;59.00
52575;DHT22;38468;48.114;-1.684;2022-07-29T04:22:05;21.00;58.90
52575;DHT22;38468;48.114;-1.684;2022-07-29T04:24:07;20.90;59.40
52575;DHT22;38468;48.114;-1.684;2022-07-29T04:26:08;20.90;59.20
52575;DHT22;38468;48.114;-1.684;2022-07-29T04:28:11;21.00;59.10
52575;DHT22;38468;48.114;-1.684;2022-07-29T04:30:11;20.90;58.60
52575;DHT22;38468;48.114;-1.684;2022-07-29T04:32:12;20.90;58.90
52575;DHT22;38468;48.114;-1.684;2022-07-29T04:34:13;20.90;58.80
52575;DHT22;38468;48.114;-1.684;2022-07-29T04:36:13;20.90;59.00
52575;DHT22;38468;48.114;-1.684;2022-07-29T04:38:14;20.90;58.90
52575;DHT22;38468;48.114;-1.684;2022-07-29T04:40:15;20.90;58.80
52575;DHT22;38468;48.114;-1.684;2022-07-29T04:42:15;20.80;58.80
52575;DHT22;38468;48.114;-1.684;2022-07-29T04:44:16;20.80;58.90
52575;DHT22;38468;48.114;-1.684;2022-07-29T04:46:17;20.80;59.00
52575;DHT22;38468;48.114;-1.684;2022-07-29T04:48:17;20.90;59.00
52575;DHT22;38468;48.114;-1.684;2022-07-29T04:50:18;20.90;58.90
52575;DHT22;38468;48.114;-1.684;2022-07-29T04:52:19;20.90;59.00
52575;DHT22;38468;48.114;-1.684;2022-07-29T04:54:19;21.00;58.90
52575;DHT22;38468;48.114;-1.684;2022-07-29T04:56:20;21.00;58.70
52575;DHT22;38468;48.114;-1.684;2022-07-29T04:58:21;21.00;58.70
52575;DHT22;38468;48.114;-1.684;2022-07-29T05:00:23;21.00;58.90
52575;DHT22;38468;48.114;-1.684;2022-07-29T05:02:24;21.00;58.90
52575;DHT22;38468;48.114;-1.684;2022-07-29T05:04:25;20.90;59.10
52575;DHT22;38468;48.114;-1.684;2022-07-29T05:06:26;20.90;59.30
52575;DHT22;38468;48.114;-1.684;2022-07-29T05:08:26;20.90;59.30
52575;DHT22;38468;48.114;-1.684;2022-07-29T05:10:27;20.80;59.30
52575;DHT22;38468;48.114;-1.684;2022-07-29T05:12:29;20.90;59.40
52575;DHT22;38468;48.114;-1.684;2022-07-29T05:14:29;20.90;59.40
52575;DHT22;38468;48.114;-1.684;2022-07-29T05:16:30;20.90;59.40
52575;DHT22;38468;48.114;-1.684;2022-07-29T05:18:31;20.80;59.80
52575;DHT22;38468;48.114;-1.684;2022-07-29T05:20:32;20.80;59.80
52575;DHT22;38468;48.114;-1.684;2022-07-29T05:22:34;20.90;59.60
52575;DHT22;38468;48.114;-1.684;2022-07-29T05:24:35;21.00;59.40
52575;DHT22;38468;48.114;-1.684;2022-07-29T05:26:35;21.00;59.30
52575;DHT22;38468;48.114;-1.684;2022-07-29T05:28:36;21.00;59.40
52575;DHT22;38468;48.114;-1.684;2022-07-29T05:30:37;21.00;59.20
52575;DHT22;38468;48.114;-1.684;2022-07-29T05:32:37;21.00;59.20
52575;DHT22;38468;48.114;-1.684;2022-07-29T05:34:38;21.00;59.40
52575;DHT22;38468;48.114;-1.684;2022-07-29T05:36:39;20.90;59.40
52575;DHT22;38468;48.114;-1.684;2022-07-29T05:38:39;21.00;59.60
52575;DHT22;38468;48.114;-1.684;2022-07-29T05:40:40;21.10;59.50
52575;DHT22;38468;48.114;-1.684;2022-07-29T05:42:41;21.10;59.30
52575;DHT22;38468;48.114;-1.684;2022-07-29T05:44:42;21.10;59.20
52575;DHT22;38468;48.114;-1.684;2022-07-29T05:46:42;21.10;59.20
52575;DHT22;38468;48.114;-1.684;2022-07-29T05:48:43;21.00;59.50
52575;DHT22;38468;48.114;-1.684;2022-07-29T05:50:44;21.00;59.70
52575;DHT22;38468;48.114;-1.684;2022-07-29T05:52:44;21.00;59.50
52575;DHT22;38468;48.114;-1.684;2022-07-29T05:54:45;21.10;59.30
52575;DHT22;38468;48.114;-1.684;2022-07-29T05:56:45;21.30;59.10
52575;DHT22;38468;48.114;-1.684;2022-07-29T05:58:46;21.40;58.90
52575;DHT22;38468;48.114;-1.684;2022-07-29T06:00:47;21.50;58.50
52575;DHT22;38468;48.114;-1.684;2022-07-29T06:02:48;21.50;58.60
52575;DHT22;38468;48.114;-1.684;2022-07-29T06:04:48;21.30;58.70
52575;DHT22;38468;48.114;-1.684;2022-07-29T06:06:49;21.40;58.80
52575;DHT22;38468;48.114;-1.684;2022-07-29T06:08:50;21.40;58.80
52575;DHT22;38468;48.114;-1.684;2022-07-29T06:10:51;21.40;59.10
52575;DHT22;38468;48.114;-1.684;2022-07-29T06:12:51;21.40;59.00
52575;DHT22;38468;48.114;-1.684;2022-07-29T06:14:52;21.50;59.00
52575;DHT22;38468;48.114;-1.684;2022-07-29T06:16:52;21.50;58.90
52575;DHT22;38468;48.114;-1.684;2022-07-29T06:18:53;21.50;58.70
52575;DHT22;38468;48.114;-1.684;2022-07-29T06:20:54;21.60;58.80
52575;DHT22;38468;48.114;-1.684;2022-07-29T06:22:55;21.70;58.40
52575;DHT22;38468;48.114;-1.684;2022-07-29T06:24:55;21.80;57.90
52575;DHT22;38468;48.114;-1.684;2022-07-29T06:26:56;21.70;58.00
52575;DHT22;38468;48.114;-1.684;2022-07-29T06:28:57;21.70;58.10
52575;DHT22;38468;48.114;-1.684;2022-07-29T06:30:58;21.70;57.90
52575;DHT22;38468;48.114;-1.684;2022-07-29T06:32:58;21.70;57.80
52575;DHT22;38468;48.114;-1.684;2022-07-29T06:35:00;21.70;57.70
52575;DHT22;38468;48.114;-1.684;2022-07-29T06:37:06;21.70;57.60
52575;DHT22;38468;48.114;-1.684;2022-07-29T06:39:08;21.80;57.40
52575;DHT22;38468;48.114;-1.684;2022-07-29T06:41:09;21.90;57.00
52575;DHT22;38468;48.114;-1.684;2022-07-29T06:43:12;22.00;56.90
52575;DHT22;38468;48.114;-1.684;2022-07-29T06:45:13;21.90;57.20
52575;DHT22;38468;48.114;-1.684;2022-07-29T06:47:14;22.00;57.00
52575;DHT22;38468;48.114;-1.684;2022-07-29T06:49:15;22.00;56.80
52575;DHT22;38468;48.114;-1.684;2022-07-29T06:51:16;22.10;56.70
52575;DHT22;38468;48.114;-1.684;2022-07-29T06:53:17;22.20;56.40
52575;DHT22;38468;48.114;-1.684;2022-07-29T06:55:17;22.30;55.80
52575;DHT22;38468;48.114;-1.684;2022-07-29T06:57:19;22.40;56.00
52575;DHT22;38468;48.114;-1.684;2022-07-29T06:59:20;22.20;55.50
52575;DHT22;38468;48.114;-1.684;2022-07-29T07:01:20;22.30;55.60
52575;DHT22;38468;48.114;-1.684;2022-07-29T07:03:21;22.50;55.90
52575;DHT22;38468;48.114;-1.684;2022-07-29T07:05:22;22.50;55.20
52575;DHT22;38468;48.114;-1.684;2022-07-29T07:07:23;22.50;55.50
52575;DHT22;38468;48.114;-1.684;2022-07-29T07:09:24;22.50;54.90
52575;DHT22;38468;48.114;-1.684;2022-07-29T07:11:24;22.70;54.80
52575;DHT22;38468;48.114;-1.684;2022-07-29T07:13:25;22.80;54.40
52575;DHT22;38468;48.114;-1.684;2022-07-29T07:15:27;22.90;54.30
52575;DHT22;38468;48.114;-1.684;2022-07-29T07:17:28;23.00;53.90
52575;DHT22;38468;48.114;-1.684;2022-07-29T07:19:28;23.00;53.50
52575;DHT22;38468;48.114;-1.684;2022-07-29T07:21:29;23.10;53.10
52575;DHT22;38468;48.114;-1.684;2022-07-29T07:23:30;23.20;52.60
52575;DHT22;38468;48.114;-1.684;2022-07-29T07:25:31;23.20;52.30
52575;DHT22;38468;48.114;-1.684;2022-07-29T07:27:32;23.10;51.80
52575;DHT22;38468;48.114;-1.684;2022-07-29T07:29:32;23.20;52.00
52575;DHT22;38468;48.114;-1.684;2022-07-29T07:31:33;23.10;51.50
52575;DHT22;38468;48.114;-1.684;2022-07-29T07:33:34;23.20;51.70
52575;DHT22;38468;48.114;-1.684;2022-07-29T07:35:34;23.10;50.90
52575;DHT22;38468;48.114;-1.684;2022-07-29T07:37:35;23.10;51.30
52575;DHT22;38468;48.114;-1.684;2022-07-29T07:39:36;23.20;51.20
52575;DHT22;38468;48.114;-1.684;2022-07-29T07:41:37;23.20;50.70
52575;DHT22;38468;48.114;-1.684;2022-07-29T07:43:38;23.30;50.40
52575;DHT22;38468;48.114;-1.684;2022-07-29T07:45:38;23.20;50.20
52575;DHT22;38468;48.114;-1.684;2022-07-29T07:47:40;23.00;50.20
52575;DHT22;38468;48.114;-1.684;2022-07-29T07:49:41;23.20;50.50
52575;DHT22;38468;48.114;-1.684;2022-07-29T07:51:42;23.30;51.30
52575;DHT22;38468;48.114;-1.684;2022-07-29T07:53:43;23.50;50.40
52575;DHT22;38468;48.114;-1.684;2022-07-29T07:55:45;23.50;50.80
52575;DHT22;38468;48.114;-1.684;2022-07-29T07:57:45;23.50;50.20
52575;DHT22;38468;48.114;-1.684;2022-07-29T07:59:46;23.60;49.80
52575;DHT22;38468;48.114;-1.684;2022-07-29T08:01:47;23.70;50.00
52575;DHT22;38468;48.114;-1.684;2022-07-29T08:03:48;23.70;50.10
52575;DHT22;38468;48.114;-1.684;2022-07-29T08:05:48;23.80;50.00
52575;DHT22;38468;48.114;-1.684;2022-07-29T08:07:51;23.90;49.30
52575;DHT22;38468;48.114;-1.684;2022-07-29T08:09:51;23.90;49.60
52575;DHT22;38468;48.114;-1.684;2022-07-29T08:11:52;23.90;49.50
52575;DHT22;38468;48.114;-1.684;2022-07-29T08:13:53;24.00;49.30
52575;DHT22;38468;48.114;-1.684;2022-07-29T08:15:54;24.10;48.70
52575;DHT22;38468;48.114;-1.684;2022-07-29T08:17:58;24.10;48.30
52575;DHT22;38468;48.114;-1.684;2022-07-29T08:19:58;24.10;48.40
52575;DHT22;38468;48.114;-1.684;2022-07-29T08:21:59;24.00;48.60
52575;DHT22;38468;48.114;-1.684;2022-07-29T08:24:00;24.20;48.80
52575;DHT22;38468;48.114;-1.684;2022-07-29T08:26:20;24.20;48.50
52575;DHT22;38468;48.114;-1.684;2022-07-29T08:28:22;24.40;48.40
52575;DHT22;38468;48.114;-1.684;2022-07-29T08:30:24;24.50;48.50
52575;DHT22;38468;48.114;-1.684;2022-07-29T08:32:25;24.60;47.50
52575;DHT22;38468;48.114;-1.684;2022-07-29T08:34:25;24.60;47.10
52575;DHT22;38468;48.114;-1.684;2022-07-29T08:36:26;24.70;47.00
52575;DHT22;38468;48.114;-1.684;2022-07-29T08:38:27;24.80;47.30
52575;DHT22;38468;48.114;-1.684;2022-07-29T08:40:28;24.90;47.50
52575;DHT22;38468;48.114;-1.684;2022-07-29T08:42:30;25.00;47.40
52575;DHT22;38468;48.114;-1.684;2022-07-29T08:44:31;25.10;46.80
52575;DHT22;38468;48.114;-1.684;2022-07-29T08:46:33;25.00;46.30
52575;DHT22;38468;48.114;-1.684;2022-07-29T08:48:39;24.40;47.00
52575;DHT22;38468;48.114;-1.684;2022-07-29T08:50:42;24.50;47.70
52575;DHT22;38468;48.114;-1.684;2022-07-29T08:52:43;24.70;47.40
52575;DHT22;38468;48.114;-1.684;2022-07-29T08:54:45;25.00;47.60
52575;DHT22;38468;48.114;-1.684;2022-07-29T08:56:50;25.10;47.20
52575;DHT22;38468;48.114;-1.684;2022-07-29T08:58:52;25.10;47.10
52575;DHT22;38468;48.114;-1.684;2022-07-29T09:00:55;25.20;47.00
52575;DHT22;38468;48.114;-1.684;2022-07-29T09:02:56;25.10;47.20
52575;DHT22;38468;48.114;-1.684;2022-07-29T09:05:00;24.90;46.40
52575;DHT22;38468;48.114;-1.684;2022-07-29T09:07:04;24.90;46.40
52575;DHT22;38468;48.114;-1.684;2022-07-29T09:09:07;24.70;46.80
52575;DHT22;38468;48.114;-1.684;2022-07-29T09:11:08;24.60;47.10
52575;DHT22;38468;48.114;-1.684;2022-07-29T09:13:10;24.60;46.90
52575;DHT22;38468;48.114;-1.684;2022-07-29T09:15:11;24.50;47.30
52575;DHT22;38468;48.114;-1.684;2022-07-29T09:17:11;24.50;47.00
52575;DHT22;38468;48.114;-1.684;2022-07-29T09:19:32;24.50;47.00
52575;DHT22;38468;48.114;-1.684;2022-07-29T09:21:40;24.30;47.80
52575;DHT22;38468;48.114;-1.684;2022-07-29T09:24:14;24.20;47.80
52575;DHT22;38468;48.114;-1.684;2022-07-29T09:26:16;24.40;47.90
52575;DHT22;38468;48.114;-1.684;2022-07-29T09:28:17;24.70;47.70
52575;DHT22;38468;48.114;-1.684;2022-07-29T09:30:18;24.70;47.00
52575;DHT22;38468;48.114;-1.684;2022-07-29T09:32:19;24.40;47.50
52575;DHT22;38468;48.114;-1.684;2022-07-29T09:34:25;24.40;47.60
52575;DHT22;38468;48.114;-1.684;2022-07-29T09:36:26;24.60;47.20
52575;DHT22;38468;48.114;-1.684;2022-07-29T09:38:27;24.90;46.80
52575;DHT22;38468;48.114;-1.684;2022-07-29T09:40:28;25.00;46.40
52575;DHT22;38468;48.114;-1.684;2022-07-29T09:42:29;24.90;46.10
52575;DHT22;38468;48.114;-1.684;2022-07-29T09:44:49;24.60;47.00
52575;DHT22;38468;48.114;-1.684;2022-07-29T09:49:11;25.10;46.20
52575;DHT22;38468;48.114;-1.684;2022-07-29T09:51:19;25.20;46.00
52575;DHT22;38468;48.114;-1.684;2022-07-29T09:55:31;25.50;46.00
52575;DHT22;38468;48.114;-1.684;2022-07-29T09:57:32;25.70;45.90
52575;DHT22;38468;48.114;-1.684;2022-07-29T09:59:33;25.90;45.40
52575;DHT22;38468;48.114;-1.684;2022-07-29T10:01:34;26.00;45.00
52575;DHT22;38468;48.114;-1.684;2022-07-29T10:03:51;26.20;44.50
52575;DHT22;38468;48.114;-1.684;2022-07-29T10:06:10;25.50;46.00
52575;DHT22;38468;48.114;-1.684;2022-07-29T10:08:12;25.80;45.30
52575;DHT22;38468;48.114;-1.684;2022-07-29T10:10:30;25.50;45.30
52575;DHT22;38468;48.114;-1.684;2022-07-29T10:12:31;25.50;45.80
52575;DHT22;38468;48.114;-1.684;2022-07-29T10:14:32;25.90;45.10
52575;DHT22;38468;48.114;-1.684;2022-07-29T10:16:36;25.90;45.00
52575;DHT22;38468;48.114;-1.684;2022-07-29T10:18:42;26.00;44.70
52575;DHT22;38468;48.114;-1.684;2022-07-29T10:20:43;26.10;44.30
52575;DHT22;38468;48.114;-1.684;2022-07-29T10:22:44;26.30;44.60
52575;DHT22;38468;48.114;-1.684;2022-07-29T10:24:47;26.70;43.60
52575;DHT22;38468;48.114;-1.684;2022-07-29T10:26:48;26.90;43.10
52575;DHT22;38468;48.114;-1.684;2022-07-29T10:28:49;26.70;42.60
52575;DHT22;38468;48.114;-1.684;2022-07-29T10:30:51;26.80;42.90
52575;DHT22;38468;48.114;-1.684;2022-07-29T10:43:06;26.90;42.40
52575;DHT22;38468;48.114;-1.684;2022-07-29T10:45:09;27.10;42.50
52575;DHT22;38468;48.114;-1.684;2022-07-29T10:47:22;27.20;41.80
52575;DHT22;38468;48.114;-1.684;2022-07-29T10:49:24;27.30;41.80
52575;DHT22;38468;48.114;-1.684;2022-07-29T10:51:59;27.40;41.20
52575;DHT22;38468;48.114;-1.684;2022-07-29T10:54:00;27.30;41.40
52575;DHT22;38468;48.114;-1.684;2022-07-29T10:56:29;27.50;41.50
52575;DHT22;38468;48.114;-1.684;2022-07-29T10:58:30;27.60;41.20
52575;DHT22;38468;48.114;-1.684;2022-07-29T11:00:31;27.40;41.20
52575;DHT22;38468;48.114;-1.684;2022-07-29T11:07:12;27.90;40.40
52575;DHT22;38468;48.114;-1.684;2022-07-29T11:09:17;27.80;40.60
52575;DHT22;38468;48.114;-1.684;2022-07-29T11:15:55;28.40;40.00
52575;DHT22;38468;48.114;-1.684;2022-07-29T11:20:32;28.00;41.10
52575;DHT22;38468;48.114;-1.684;2022-07-29T11:22:34;28.20;40.30
52575;DHT22;38468;48.114;-1.684;2022-07-29T11:24:35;28.50;40.10
52575;DHT22;38468;48.114;-1.684;2022-07-29T11:26:37;28.80;39.90
52575;DHT22;38468;48.114;-1.684;2022-07-29T11:30:53;29.10;39.10
52575;DHT22;38468;48.114;-1.684;2022-07-29T11:32:55;28.90;38.60
52575;DHT22;38468;48.114;-1.684;2022-07-29T11:35:15;28.80;39.40
52575;DHT22;38468;48.114;-1.684;2022-07-29T11:37:18;29.10;39.40
52575;DHT22;38468;48.114;-1.684;2022-07-29T11:39:26;29.20;39.30
52575;DHT22;38468;48.114;-1.684;2022-07-29T11:41:27;28.40;39.40
52575;DHT22;38468;48.114;-1.684;2022-07-29T11:43:51;28.50;40.20
52575;DHT22;38468;48.114;-1.684;2022-07-29T11:45:52;28.00;40.60
52575;DHT22;38468;48.114;-1.684;2022-07-29T11:47:55;28.10;40.70
52575;DHT22;38468;48.114;-1.684;2022-07-29T11:50:01;28.40;40.20
52575;DHT22;38468;48.114;-1.684;2022-07-29T11:52:02;28.30;40.00
52575;DHT22;38468;48.114;-1.684;2022-07-29T11:54:04;28.40;40.50
52575;DHT22;38468;48.114;-1.684;2022-07-29T11:56:08;28.70;39.80
52575;DHT22;38468;48.114;-1.684;2022-07-29T11:58:09;29.10;39.30
52575;DHT22;38468;48.114;-1.684;2022-07-29T12:00:10;28.60;39.50
52575;DHT22;38468;48.114;-1.684;2022-07-29T12:02:13;28.50;39.50
52575;DHT22;38468;48.114;-1.684;2022-07-29T12:04:14;28.50;40.10
52575;DHT22;38468;48.114;-1.684;2022-07-29T12:06:15;29.00;39.90
52575;DHT22;38468;48.114;-1.684;2022-07-29T12:08:21;29.50;39.00
52575;DHT22;38468;48.114;-1.684;2022-07-29T12:10:22;29.80;38.40
52575;DHT22;38468;48.114;-1.684;2022-07-29T12:12:35;30.20;38.10
52575;DHT22;38468;48.114;-1.684;2022-07-29T12:14:36;30.00;37.30
52575;DHT22;38468;48.114;-1.684;2022-07-29T12:16:37;30.10;37.20
52575;DHT22;38468;48.114;-1.684;2022-07-29T12:18:38;30.00;37.00
52575;DHT22;38468;48.114;-1.684;2022-07-29T12:20:39;30.10;37.00
52575;DHT22;38468;48.114;-1.684;2022-07-29T12:22:41;29.50;37.90
52575;DHT22;38468;48.114;-1.684;2022-07-29T12:24:44;29.50;38.10
52575;DHT22;38468;48.114;-1.684;2022-07-29T12:26:56;30.00;37.80
52575;DHT22;38468;48.114;-1.684;2022-07-29T12:28:57;30.40;36.50
52575;DHT22;38468;48.114;-1.684;2022-07-29T12:30:58;30.40;36.20
52575;DHT22;38468;48.114;-1.684;2022-07-29T12:32:59;30.40;36.20
52575;DHT22;38468;48.114;-1.684;2022-07-29T12:35:12;29.90;37.30
52575;DHT22;38468;48.114;-1.684;2022-07-29T12:37:14;30.20;36.90
52575;DHT22;38468;48.114;-1.684;2022-07-29T12:39:16;30.50;35.30
52575;DHT22;38468;48.114;-1.684;2022-07-29T12:41:17;30.50;35.40
52575;DHT22;38468;48.114;-1.684;2022-07-29T12:43:22;30.70;35.90
52575;DHT22;38468;48.114;-1.684;2022-07-29T12:45:30;31.10;35.70
52575;DHT22;38468;48.114;-1.684;2022-07-29T12:47:31;30.60;34.90
52575;DHT22;38468;48.114;-1.684;2022-07-29T12:49:32;30.50;35.30
52575;DHT22;38468;48.114;-1.684;2022-07-29T12:51:35;31.00;35.40
52575;DHT22;38468;48.114;-1.684;2022-07-29T12:53:37;31.20;35.10
52575;DHT22;38468;48.114;-1.684;2022-07-29T12:55:47;31.40;35.40
52575;DHT22;38468;48.114;-1.684;2022-07-29T12:57:51;31.40;35.10
52575;DHT22;38468;48.114;-1.684;2022-07-29T13:00:00;31.00;35.40
52575;DHT22;38468;48.114;-1.684;2022-07-29T13:02:01;31.10;36.10
52575;DHT22;38468;48.114;-1.684;2022-07-29T13:04:01;31.30;35.60
52575;DHT22;38468;48.114;-1.684;2022-07-29T13:06:04;31.30;35.60
52575;DHT22;38468;48.114;-1.684;2022-07-29T13:08:16;31.30;35.70
52575;DHT22;38468;48.114;-1.684;2022-07-29T13:10:20;31.20;35.70
52575;DHT22;38468;48.114;-1.684;2022-07-29T13:12:21;31.00;35.80
52575;DHT22;38468;48.114;-1.684;2022-07-29T13:14:41;30.50;36.50
52575;DHT22;38468;48.114;-1.684;2022-07-29T13:19:11;30.50;36.70
52575;DHT22;38468;48.114;-1.684;2022-07-29T13:21:14;30.60;36.90
52575;DHT22;38468;48.114;-1.684;2022-07-29T13:23:15;30.70;36.60